createdAt,value
2022-08-05T00:00:00.318Z,25.62
2022-08-05T00:02:28.727Z,25.61
2022-08-05T00:04:57.628Z,25.62
2022-08-05T00:07:58.873Z,25.51
2022-08-05T00:10:14.356Z,25.47
2022-08-05T00:12:56.841Z,25.50
2022-08-05T00:15:55.906Z,25.46
2022-08-05T00:18:21.734Z,25.43
2022-08-05T00:20:51.470Z,25.43
2022-08-05T00:23:44.443Z,25.44
2022-08-05T00:26:08.116Z,25.45
2022-08-05T00:28:35.168Z,25.46
2022-08-05T00:31:04.730Z,25.42
2022-08-05T00:34:53.186Z,25.39
2022-08-05T00:37:11.754Z,25.38
2022-08-05T00:39:13.944Z,25.40
2022-08-05T00:41:51.778Z,25.40
2022-08-05T00:44:30.981Z,25.38
2022-08-05T00:47:01.619Z,25.39
2022-08-05T00:49:32.684Z,25.43
2022-08-05T00:52:12.680Z,25.44
2022-08-05T00:54:41.408Z,25.42
2022-08-05T00:57:12.132Z,25.44
2022-08-05T00:59:44.421Z,25.44
2022-08-05T01:02:13.662Z,25.47
2022-08-05T01:04:44.367Z,25.50
2022-08-05T01:07:18.558Z,25.50
2022-08-05T01:09:46.414Z,25.47
2022-08-05T01:12:25.392Z,25.50
2022-08-05T01:15:03.804Z,25.51
2022-08-05T01:17:43.935Z,25.49
2022-08-05T01:20:47.970Z,25.48
2022-08-05T01:23:54.099Z,25.49
2022-08-05T01:26:42.042Z,25.45
2022-08-05T01:29:25.031Z,25.34
2022-08-05T01:31:58.930Z,25.19
2022-08-05T01:34:38.250Z,24.99
2022-08-05T01:37:25.889Z,24.86
2022-08-05T01:39:58.994Z,24.78
2022-08-05T01:42:30.123Z,24.86
2022-08-05T01:45:02.389Z,24.94
2022-08-05T01:47:39.476Z,24.79
2022-08-05T01:50:17.535Z,24.54
2022-08-05T01:52:49.853Z,24.42
2022-08-05T01:55:22.398Z,24.50
2022-08-05T01:58:13.574Z,24.62
2022-08-05T02:00:45.981Z,24.70
2022-08-05T02:03:36.536Z,24.73
2022-08-05T02:06:37.314Z,24.75
2022-08-05T02:08:59.370Z,24.79
2022-08-05T02:11:42.257Z,24.78
2022-08-05T02:14:20.935Z,24.76
2022-08-05T02:16:54.233Z,24.55
2022-08-05T02:19:47.626Z,24.46
2022-08-05T02:22:59.978Z,24.55
2022-08-05T02:25:35.927Z,24.62
2022-08-05T02:28:28.431Z,24.66
2022-08-05T02:31:14.569Z,24.69
2022-08-05T02:33:59.011Z,24.73
2022-08-05T02:36:31.392Z,24.76
2022-08-05T02:39:03.932Z,24.74
2022-08-05T02:41:58.262Z,24.73
2022-08-05T02:44:27.006Z,24.71
2022-08-05T02:47:00.287Z,24.73
2022-08-05T02:49:44.545Z,24.69
2022-08-05T02:52:29.530Z,24.56
2022-08-05T02:55:01.794Z,24.64
2022-08-05T02:58:19.693Z,24.74
2022-08-05T03:00:21.689Z,24.56
2022-08-05T03:02:49.655Z,24.41
2022-08-05T03:05:21.665Z,24.20
2022-08-05T03:08:09.601Z,24.10
2022-08-05T03:10:37.655Z,23.99
2022-08-05T03:13:16.876Z,23.75
2022-08-05T03:15:46.412Z,23.92
2022-08-05T03:18:17.280Z,24.08
2022-08-05T03:20:48.980Z,24.18
2022-08-05T03:23:18.378Z,24.21
2022-08-05T03:26:03.674Z,24.22
2022-08-05T03:28:39.349Z,24.21
2022-08-05T03:31:08.252Z,24.06
2022-08-05T03:33:51.323Z,23.80
2022-08-05T03:36:30.183Z,23.77
2022-08-05T03:38:58.834Z,23.98
2022-08-05T03:41:26.552Z,24.14
2022-08-05T03:44:10.356Z,24.20
2022-08-05T03:46:38.627Z,24.19
2022-08-05T03:49:06.723Z,24.21
2022-08-05T03:52:39.332Z,24.30
2022-08-05T03:56:01.591Z,24.37
2022-08-05T03:57:46.251Z,24.39
2022-08-05T04:00:26.435Z,24.39
2022-08-05T04:02:58.524Z,24.48
2022-08-05T04:05:33.928Z,24.52
2022-08-05T04:08:05.517Z,24.56
2022-08-05T04:10:45.209Z,24.58
2022-08-05T04:13:12.019Z,24.57
2022-08-05T04:15:39.945Z,24.64
2022-08-05T04:18:27.912Z,24.71
2022-08-05T04:20:57.385Z,24.80
2022-08-05T04:24:05.452Z,24.84
2022-08-05T04:26:15.615Z,24.96
2022-08-05T04:28:51.086Z,25.09
2022-08-05T04:31:20.021Z,25.16
2022-08-05T04:34:17.343Z,25.20
2022-08-05T04:36:49.512Z,25.00
2022-08-05T04:39:18.398Z,24.83
2022-08-05T04:41:48.533Z,24.56
2022-08-05T04:44:29.846Z,24.41
2022-08-05T04:46:58.932Z,24.45
2022-08-05T04:49:38.446Z,24.47
2022-08-05T04:52:16.289Z,24.52
2022-08-05T04:54:47.199Z,24.69
2022-08-05T04:57:19.916Z,24.85
2022-08-05T04:59:48.717Z,25.09
2022-08-05T05:02:41.956Z,25.33
2022-08-05T05:05:16.605Z,25.52
2022-08-05T05:07:56.135Z,25.68
2022-08-05T05:10:27.001Z,25.83
2022-08-05T05:13:01.921Z,25.95
2022-08-05T05:15:56.120Z,26.14
2022-08-05T05:18:31.013Z,26.30
2022-08-05T05:21:00.824Z,26.46
2022-08-05T05:23:39.097Z,26.67
2022-08-05T05:26:16.208Z,26.85
2022-08-05T05:28:45.085Z,26.98
2022-08-05T05:31:13.830Z,27.19
2022-08-05T05:33:58.570Z,27.40
2022-08-05T05:36:28.841Z,27.62
2022-08-05T05:38:57.380Z,27.77
2022-08-05T05:41:24.228Z,28.00
2022-08-05T05:43:57.449Z,28.13
2022-08-05T05:46:26.789Z,28.09
2022-08-05T05:48:53.424Z,28.21
2022-08-05T05:51:25.639Z,28.07
2022-08-05T05:53:59.021Z,28.34
2022-08-05T05:56:33.234Z,28.44
2022-08-05T05:59:03.567Z,28.62
2022-08-05T06:01:37.654Z,28.99
2022-08-05T06:04:11.761Z,29.29
2022-08-05T06:06:47.400Z,29.34
2022-08-05T06:09:16.806Z,29.54
2022-08-05T06:11:59.208Z,29.66
2022-08-05T06:14:29.240Z,29.91
2022-08-05T06:16:56.884Z,30.15
2022-08-05T06:19:34.072Z,30.19
2022-08-05T06:22:06.482Z,30.27
2022-08-05T06:24:34.866Z,30.49
2022-08-05T06:27:03.982Z,30.33
2022-08-05T06:29:49.556Z,30.43
2022-08-05T06:32:25.585Z,30.48
2022-08-05T06:34:56.524Z,30.48
2022-08-05T06:37:55.867Z,30.44
2022-08-05T06:40:18.155Z,30.45
2022-08-05T06:42:52.107Z,30.71
2022-08-05T06:45:20.735Z,31.05
2022-08-05T06:48:47.060Z,31.00
2022-08-05T06:50:34.767Z,30.61
2022-08-05T06:53:03.708Z,30.60
2022-08-05T06:55:38.028Z,30.98
2022-08-05T06:58:19.885Z,31.16
2022-08-05T07:00:47.157Z,31.48
2022-08-05T07:03:14.066Z,31.82
2022-08-05T07:05:43.402Z,31.84
2022-08-05T07:08:11.124Z,31.79
2022-08-05T07:10:38.866Z,32.07
2022-08-05T07:13:59.375Z,32.36
2022-08-05T07:18:07.104Z,32.79
2022-08-05T07:20:22.949Z,32.86
2022-08-05T07:22:15.947Z,33.04
2022-08-05T07:24:43.909Z,33.18
2022-08-05T07:27:19.202Z,33.49
2022-08-05T07:30:27.726Z,33.83
2022-08-05T07:32:38.660Z,34.03
2022-08-05T07:36:02.373Z,33.80
2022-08-05T07:37:55.992Z,33.82
2022-08-05T07:40:31.616Z,33.96
2022-08-05T07:42:59.463Z,33.67
2022-08-05T07:45:58.200Z,34.04
2022-08-05T07:49:00.667Z,34.39
2022-08-05T07:51:22.920Z,34.76
2022-08-05T07:53:51.642Z,34.93
2022-08-05T07:56:59.931Z,35.15
2022-08-05T07:59:05.321Z,35.42
2022-08-05T08:01:35.438Z,35.25
2022-08-05T08:04:08.368Z,35.26
2022-08-05T08:06:35.106Z,35.58
2022-08-05T08:09:01.730Z,35.35
2022-08-05T08:11:47.580Z,35.47
2022-08-05T08:14:19.029Z,35.60
2022-08-05T08:16:50.839Z,35.76
2022-08-05T08:20:22.477Z,35.85
2022-08-05T08:22:09.011Z,36.19
2022-08-05T08:24:51.284Z,35.75
2022-08-05T08:27:18.714Z,35.92
2022-08-05T08:30:05.559Z,36.19
2022-08-05T08:32:34.974Z,36.20
2022-08-05T08:35:13.531Z,36.19
2022-08-05T08:37:40.616Z,36.70
2022-08-05T08:40:12.530Z,37.05
2022-08-05T08:42:46.941Z,37.26
2022-08-05T08:45:26.733Z,37.17
2022-08-05T08:48:10.743Z,37.32
2022-08-05T08:51:22.612Z,37.77
2022-08-05T08:53:40.263Z,37.91
2022-08-05T08:56:11.798Z,37.80
2022-08-05T08:58:44.563Z,37.78
2022-08-05T09:01:17.050Z,38.06
2022-08-05T09:03:52.887Z,38.23
2022-08-05T09:06:24.154Z,37.51
2022-08-05T09:08:55.597Z,38.04
2022-08-05T09:11:51.371Z,38.36
2022-08-05T09:14:57.502Z,38.12
2022-08-05T09:16:55.950Z,38.48
2022-08-05T09:19:27.901Z,38.43
2022-08-05T09:22:23.456Z,38.09
2022-08-05T09:25:00.767Z,38.25
2022-08-05T09:28:04.212Z,38.44
2022-08-05T09:30:23.354Z,38.22
2022-08-05T09:32:51.582Z,38.12
2022-08-05T09:35:27.110Z,38.28
2022-08-05T09:38:12.730Z,37.28
2022-08-05T09:40:52.651Z,37.59
2022-08-05T09:43:40.774Z,37.56
2022-08-05T09:46:27.414Z,36.92
2022-08-05T09:49:06.822Z,36.48
2022-08-05T09:51:37.548Z,37.41
2022-08-05T09:54:09.478Z,37.95
2022-08-05T09:56:38.799Z,38.38
2022-08-05T09:59:08.310Z,38.07
2022-08-05T10:01:40.382Z,38.63
2022-08-05T10:04:16.067Z,38.86
2022-08-05T10:06:59.602Z,39.33
2022-08-05T10:09:29.488Z,39.64
2022-08-05T10:12:30.775Z,39.68
2022-08-05T10:15:16.247Z,39.14
2022-08-05T10:17:54.635Z,38.94
2022-08-05T10:20:25.568Z,39.35
2022-08-05T10:22:52.666Z,39.68
2022-08-05T10:25:19.606Z,39.72
2022-08-05T10:28:13.723Z,39.84
2022-08-05T10:32:46.714Z,39.97
2022-08-05T10:33:28.981Z,39.78
2022-08-05T10:35:59.631Z,40.32
2022-08-05T10:38:28.783Z,40.82
2022-08-05T10:41:13.900Z,40.84
2022-08-05T10:43:50.916Z,40.94
2022-08-05T10:46:23.770Z,40.67
2022-08-05T10:49:09.856Z,39.97
2022-08-05T10:51:59.678Z,39.53
2022-08-05T10:54:56.232Z,38.63
2022-08-05T10:57:31.755Z,39.56
2022-08-05T11:00:23.538Z,39.80
2022-08-05T11:03:25.258Z,39.37
2022-08-05T11:06:15.714Z,38.59
2022-08-05T11:09:02.731Z,38.66
2022-08-05T11:11:44.349Z,38.63
2022-08-05T11:15:11.519Z,38.64
2022-08-05T11:18:00.216Z,39.03
2022-08-05T11:20:46.212Z,39.33
2022-08-05T11:24:04.240Z,39.68
2022-08-05T11:26:38.062Z,40.11
2022-08-05T11:29:13.537Z,40.38
2022-08-05T11:31:56.648Z,40.42
2022-08-05T11:34:51.688Z,40.31
2022-08-05T11:38:30.194Z,40.35
2022-08-05T11:41:03.437Z,41.10
2022-08-05T11:44:07.773Z,40.99
2022-08-05T11:46:58.344Z,41.26
2022-08-05T11:49:37.277Z,41.43
2022-08-05T11:52:11.628Z,40.18
2022-08-05T11:54:40.550Z,40.36
2022-08-05T11:57:39.396Z,40.19
2022-08-05T11:59:55.129Z,39.70
2022-08-05T12:02:33.092Z,39.94
2022-08-05T12:05:07.374Z,40.45
2022-08-05T12:08:03.304Z,40.47
2022-08-05T12:10:38.652Z,40.37
2022-08-05T12:13:15.668Z,40.56
2022-08-05T12:15:50.247Z,40.66
2022-08-05T12:18:32.764Z,41.11
2022-08-05T12:21:33.931Z,40.53
2022-08-05T12:24:08.719Z,40.69
2022-08-05T12:26:37.554Z,41.24
2022-08-05T12:29:25.182Z,41.52
2022-08-05T12:31:58.581Z,41.92
2022-08-05T12:34:32.497Z,42.36
2022-08-05T12:37:10.824Z,42.71
2022-08-05T12:39:45.042Z,42.46
2022-08-05T12:42:19.960Z,41.94
2022-08-05T12:44:47.742Z,41.16
2022-08-05T12:47:36.803Z,41.63
2022-08-05T12:50:16.905Z,41.56
2022-08-05T12:52:59.768Z,41.46
2022-08-05T12:55:32.756Z,41.84
2022-08-05T12:58:50.508Z,42.23
2022-08-05T13:02:01.007Z,42.67
2022-08-05T13:03:42.431Z,42.79
2022-08-05T13:06:17.240Z,41.63
2022-08-05T13:08:49.119Z,41.54
2022-08-05T13:11:57.884Z,41.15
2022-08-05T13:14:20.434Z,40.80
2022-08-05T13:16:58.850Z,41.02
2022-08-05T13:19:51.631Z,40.16
2022-08-05T13:22:28.504Z,40.26
2022-08-05T13:25:05.532Z,41.02
2022-08-05T13:27:39.662Z,40.71
2022-08-05T13:30:35.313Z,41.39
2022-08-05T13:33:01.318Z,41.70
2022-08-05T13:35:42.676Z,40.66
2022-08-05T13:38:20.252Z,39.73
2022-08-05T13:40:57.084Z,41.05
2022-08-05T13:43:23.745Z,41.73
2022-08-05T13:46:12.246Z,42.51
2022-08-05T13:48:58.358Z,42.86
2022-08-05T13:51:40.439Z,42.79
2022-08-05T13:54:13.476Z,42.14
2022-08-05T13:56:50.429Z,42.31
2022-08-05T13:59:24.196Z,42.48
2022-08-05T14:01:58.980Z,42.42
2022-08-05T14:04:51.623Z,42.79
2022-08-05T14:07:55.487Z,43.13
2022-08-05T14:10:28.833Z,43.18
2022-08-05T14:12:57.848Z,42.97
2022-08-05T14:16:08.352Z,42.83
2022-08-05T14:18:17.789Z,42.82
2022-08-05T14:20:49.024Z,42.96
2022-08-05T14:23:25.423Z,42.76
2022-08-05T14:25:54.532Z,42.44
2022-08-05T14:28:27.059Z,42.53
2022-08-05T14:30:58.183Z,42.61
2022-08-05T14:33:24.966Z,42.82
2022-08-05T14:35:54.342Z,42.84
2022-08-05T14:38:32.192Z,42.68
2022-08-05T14:41:05.840Z,42.39
2022-08-05T14:43:59.629Z,42.44
2022-08-05T14:46:21.890Z,42.13
2022-08-05T14:48:49.187Z,42.27
2022-08-05T14:51:17.561Z,42.33
2022-08-05T14:53:46.365Z,41.34
2022-08-05T14:56:33.129Z,41.55
2022-08-05T14:59:00.005Z,41.99
2022-08-05T15:01:48.751Z,42.33
2022-08-05T15:04:14.322Z,41.92
2022-08-05T15:06:41.029Z,42.10
2022-08-05T15:09:15.928Z,42.33
2022-08-05T15:11:51.651Z,42.45
2022-08-05T15:14:35.795Z,42.51
2022-08-05T15:17:14.642Z,42.57
2022-08-05T15:19:55.118Z,42.61
2022-08-05T15:22:22.025Z,42.09
2022-08-05T15:24:54.423Z,42.23
2022-08-05T15:27:21.040Z,42.41
2022-08-05T15:29:47.655Z,42.59
2022-08-05T15:32:16.789Z,42.56
2022-08-05T15:34:43.491Z,42.45
2022-08-05T15:37:14.127Z,42.35
2022-08-05T15:41:01.027Z,42.51
2022-08-05T15:42:55.733Z,42.68
2022-08-05T15:45:16.848Z,42.80
2022-08-05T15:47:46.378Z,42.45
2022-08-05T15:50:15.888Z,42.13
2022-08-05T15:52:52.948Z,41.88
2022-08-05T15:55:24.730Z,40.45
2022-08-05T15:58:16.528Z,39.78
2022-08-05T16:00:50.946Z,39.64
2022-08-05T16:03:32.660Z,39.65
2022-08-05T16:06:00.771Z,40.12
2022-08-05T16:08:30.410Z,40.58
2022-08-05T16:10:57.387Z,40.66
2022-08-05T16:13:24.165Z,40.56
2022-08-05T16:16:01.224Z,40.86
2022-08-05T16:18:31.303Z,40.93
2022-08-05T16:21:03.919Z,41.02
2022-08-05T16:23:32.964Z,41.05
2022-08-05T16:26:18.234Z,41.23
2022-08-05T16:28:44.930Z,41.13
2022-08-05T16:31:11.575Z,41.04
2022-08-05T16:33:41.655Z,40.94
2022-08-05T16:36:09.152Z,40.50
2022-08-05T16:38:35.897Z,40.60
2022-08-05T16:41:21.644Z,40.66
2022-08-05T16:43:49.773Z,40.64
2022-08-05T16:46:24.433Z,40.67
2022-08-05T16:48:51.746Z,40.55
2022-08-05T16:51:19.282Z,40.37
2022-08-05T16:54:04.898Z,40.28
2022-08-05T16:56:35.399Z,40.10
2022-08-05T16:59:08.361Z,39.82
2022-08-05T17:01:54.204Z,39.59
2022-08-05T17:04:26.129Z,39.24
2022-08-05T17:06:55.483Z,39.02
2022-08-05T17:09:22.970Z,38.68
2022-08-05T17:11:56.056Z,38.27
2022-08-05T17:14:37.602Z,37.81
2022-08-05T17:17:06.774Z,37.28
2022-08-05T17:19:43.873Z,36.88
2022-08-05T17:22:17.864Z,36.44
2022-08-05T17:24:51.289Z,36.14
2022-08-05T17:27:26.155Z,35.73
2022-08-05T17:30:00.654Z,35.38
2022-08-05T17:32:29.214Z,35.19
2022-08-05T17:34:58.147Z,34.97
2022-08-05T17:37:41.437Z,34.72
2022-08-05T17:40:14.984Z,34.49
2022-08-05T17:42:51.281Z,34.33
2022-08-05T17:45:22.276Z,34.11
2022-08-05T17:47:55.360Z,33.95
2022-08-05T17:50:28.749Z,33.80
2022-08-05T17:53:04.982Z,33.64
2022-08-05T17:55:38.350Z,33.50
2022-08-05T17:58:13.240Z,33.37
2022-08-05T18:00:44.971Z,33.25
2022-08-05T18:03:39.178Z,33.15
2022-08-05T18:06:06.079Z,32.95
2022-08-05T18:08:38.277Z,32.77
2022-08-05T18:11:11.315Z,32.63
2022-08-05T18:13:51.590Z,32.52
2022-08-05T18:16:20.404Z,32.41
2022-08-05T18:18:48.636Z,32.35
2022-08-05T18:21:21.105Z,32.27
2022-08-05T18:23:53.712Z,32.14
2022-08-05T18:26:29.332Z,31.99
2022-08-05T18:28:59.152Z,31.87
2022-08-05T18:31:33.768Z,31.60
2022-08-05T18:34:03.385Z,31.42
2022-08-05T18:36:35.493Z,31.19
2022-08-05T18:39:04.367Z,31.03
2022-08-05T18:41:56.779Z,30.83
2022-08-05T18:44:25.834Z,30.75
2022-08-05T18:47:04.071Z,30.60
2022-08-05T18:49:58.280Z,30.45
2022-08-05T18:52:35.900Z,30.37
2022-08-05T18:55:06.093Z,30.30
2022-08-05T18:57:43.200Z,30.26
2022-08-05T19:00:20.392Z,30.22
2022-08-05T19:02:48.909Z,30.22
2022-08-05T19:06:11.758Z,30.18
2022-08-05T19:08:07.709Z,30.09
2022-08-05T19:10:40.581Z,30.02
2022-08-05T19:13:12.404Z,29.90
2022-08-05T19:15:57.602Z,29.74
2022-08-05T19:18:27.484Z,29.65
2022-08-05T19:20:55.866Z,29.58
2022-08-05T19:24:06.253Z,29.51
2022-08-05T19:26:11.208Z,29.38
2022-08-05T19:28:43.412Z,29.26
2022-08-05T19:31:13.545Z,29.15
2022-08-05T19:33:48.550Z,29.12
2022-08-05T19:36:29.609Z,29.01
2022-08-05T19:39:00.651Z,28.92
2022-08-05T19:42:05.427Z,28.86
2022-08-05T19:44:19.039Z,28.80
2022-08-05T19:46:47.341Z,28.76
2022-08-05T19:49:17.906Z,28.74
2022-08-05T19:52:09.286Z,28.69
2022-08-05T19:54:36.892Z,28.67
2022-08-05T19:57:09.084Z,28.67
2022-08-05T20:00:00.265Z,28.65
2022-08-05T20:02:27.700Z,28.61
2022-08-05T20:04:58.500Z,28.57
2022-08-05T20:07:45.657Z,28.49
2022-08-05T20:10:16.078Z,28.43
2022-08-05T20:12:45.990Z,28.40
2022-08-05T20:15:22.916Z,28.36
2022-08-05T20:18:10.837Z,28.29
2022-08-05T20:20:57.340Z,28.17
2022-08-05T20:23:39.293Z,28.13
2022-08-05T20:26:16.057Z,28.11
2022-08-05T20:28:46.295Z,28.10
2022-08-05T20:31:16.600Z,28.08
2022-08-05T20:33:45.324Z,28.08
2022-08-05T20:36:16.372Z,28.07
2022-08-05T20:38:54.498Z,28.03
2022-08-05T20:41:44.278Z,27.97
2022-08-05T20:44:29.739Z,27.87
2022-08-05T20:47:03.267Z,27.76
2022-08-05T20:49:37.804Z,27.71
2022-08-05T20:52:08.690Z,27.62
2022-08-05T20:54:55.218Z,27.51
2022-08-05T20:57:43.301Z,27.48
2022-08-05T21:00:41.139Z,27.43
2022-08-05T21:03:07.146Z,27.41
2022-08-05T21:05:54.108Z,27.38
2022-08-05T21:08:31.716Z,27.36
2022-08-05T21:11:09.340Z,27.34
2022-08-05T21:13:47.443Z,27.28
2022-08-05T21:16:29.765Z,27.19
2022-08-05T21:19:00.864Z,27.11
2022-08-05T21:21:39.019Z,27.04
2022-08-05T21:24:15.620Z,27.03
2022-08-05T21:26:53.163Z,27.01
2022-08-05T21:29:26.437Z,26.95
2022-08-05T21:31:53.632Z,26.89
2022-08-05T21:34:22.106Z,26.84
2022-08-05T21:36:50.031Z,26.83
2022-08-05T21:39:26.866Z,26.83
2022-08-05T21:42:01.093Z,26.78
2022-08-05T21:44:31.682Z,26.76
2022-08-05T21:46:58.900Z,26.73
2022-08-05T21:49:56.816Z,26.71
2022-08-05T21:52:21.573Z,26.71
2022-08-05T21:54:51.940Z,26.70
2022-08-05T21:57:32.612Z,26.78
2022-08-05T22:00:06.207Z,26.82
2022-08-05T22:02:37.724Z,26.81
2022-08-05T22:05:08.899Z,26.72
2022-08-05T22:07:59.285Z,26.59
2022-08-05T22:10:31.217Z,26.67
2022-08-05T22:13:08.723Z,26.77
2022-08-05T22:16:00.285Z,26.83
2022-08-05T22:18:34.974Z,26.86
2022-08-05T22:21:18.883Z,26.88
2022-08-05T22:24:12.895Z,26.87
2022-08-05T22:27:06.919Z,26.88
2022-08-05T22:29:39.913Z,26.88
2022-08-05T22:32:11.442Z,26.89
2022-08-05T22:34:47.030Z,26.86
2022-08-05T22:37:16.923Z,26.85
2022-08-05T22:39:50.393Z,26.83
2022-08-05T22:42:25.493Z,26.82
2022-08-05T22:44:56.661Z,26.78
2022-08-05T22:47:30.681Z,26.76
2022-08-05T22:50:19.392Z,26.67
2022-08-05T22:52:52.544Z,26.65
2022-08-05T22:55:23.867Z,26.65
2022-08-05T22:57:53.597Z,26.63
2022-08-05T23:00:26.484Z,26.62
2022-08-05T23:02:58.570Z,26.62
2022-08-05T23:05:26.860Z,26.59
2022-08-05T23:07:55.159Z,26.61
2022-08-05T23:10:25.637Z,26.60
2022-08-05T23:12:55.605Z,26.57
2022-08-05T23:15:35.379Z,26.53
2022-08-05T23:18:06.164Z,26.40
2022-08-05T23:20:40.308Z,26.31
2022-08-05T23:23:10.676Z,26.29
2022-08-05T23:25:54.968Z,26.26
2022-08-05T23:28:28.986Z,26.23
2022-08-05T23:30:57.140Z,26.28
2022-08-05T23:34:04.981Z,26.29
2022-08-05T23:36:39.720Z,26.32
2022-08-05T23:39:17.660Z,26.15
2022-08-05T23:42:00.934Z,25.89
2022-08-05T23:44:31.057Z,25.60
2022-08-05T23:47:02.424Z,25.40
2022-08-05T23:49:35.911Z,25.24
2022-08-05T23:52:25.108Z,25.11
2022-08-05T23:55:10.960Z,25.01
2022-08-05T23:57:40.885Z,24.98
